sensor_id;sensor_type;location;lat;lon;timestamp;P1;durP1;ratioP1;P2;durP2;ratioP2
46288;SDS011;63105;46.158;14.604;2023-04-03T00:00:01;3.70;;;2.00;;
46288;SDS011;63105;46.158;14.604;2023-04-03T00:02:26;3.75;;;1.90;;
46288;SDS011;63105;46.158;14.604;2023-04-03T00:04:51;2.97;;;1.60;;
46288;SDS011;63105;46.158;14.604;2023-04-03T00:07:17;3.42;;;1.60;;
46288;SDS011;63105;46.158;14.604;2023-04-03T00:09:42;4.53;;;1.70;;
46288;SDS011;63105;46.158;14.604;2023-04-03T00:12:07;2.85;;;1.60;;
46288;SDS011;63105;46.158;14.604;2023-04-03T00:14:32;2.83;;;1.40;;
46288;SDS011;63105;46.158;14.604;2023-04-03T00:16:58;3.38;;;1.80;;
46288;SDS011;63105;46.158;14.604;2023-04-03T00:19:23;3.10;;;1.65;;
46288;SDS011;63105;46.158;14.604;2023-04-03T00:21:48;2.78;;;1.40;;
46288;SDS011;63105;46.158;14.604;2023-04-03T00:24:13;2.63;;;1.50;;
46288;SDS011;63105;46.158;14.604;2023-04-03T00:26:39;2.80;;;1.58;;
46288;SDS011;63105;46.158;14.604;2023-04-03T00:29:05;3.45;;;1.63;;
46288;SDS011;63105;46.158;14.604;2023-04-03T00:31:30;3.35;;;1.52;;
46288;SDS011;63105;46.158;14.604;2023-04-03T00:33:55;3.63;;;1.80;;
46288;SDS011;63105;46.158;14.604;2023-04-03T00:36:20;3.35;;;1.80;;
46288;SDS011;63105;46.158;14.604;2023-04-03T00:38:45;3.28;;;1.70;;
46288;SDS011;63105;46.158;14.604;2023-04-03T00:41:11;3.28;;;1.63;;
46288;SDS011;63105;46.158;14.604;2023-04-03T00:43:36;2.92;;;1.60;;
46288;SDS011;63105;46.158;14.604;2023-04-03T00:46:01;3.60;;;1.70;;
46288;SDS011;63105;46.158;14.604;2023-04-03T00:48:28;2.90;;;1.60;;
46288;SDS011;63105;46.158;14.604;2023-04-03T00:50:54;2.90;;;1.63;;
46288;SDS011;63105;46.158;14.604;2023-04-03T00:53:24;3.80;;;1.70;;
46288;SDS011;63105;46.158;14.604;2023-04-03T00:55:51;3.58;;;1.70;;
46288;SDS011;63105;46.158;14.604;2023-04-03T00:58:18;3.28;;;1.80;;
46288;SDS011;63105;46.158;14.604;2023-04-03T01:00:46;7.13;;;1.73;;
46288;SDS011;63105;46.158;14.604;2023-04-03T01:03:13;3.55;;;1.75;;
46288;SDS011;63105;46.158;14.604;2023-04-03T01:05:38;3.40;;;1.90;;
46288;SDS011;63105;46.158;14.604;2023-04-03T01:08:04;3.10;;;1.85;;
46288;SDS011;63105;46.158;14.604;2023-04-03T01:10:30;3.40;;;1.90;;
46288;SDS011;63105;46.158;14.604;2023-04-03T01:12:55;3.78;;;1.83;;
46288;SDS011;63105;46.158;14.604;2023-04-03T01:15:22;3.88;;;2.00;;
46288;SDS011;63105;46.158;14.604;2023-04-03T01:17:54;3.58;;;1.80;;
46288;SDS011;63105;46.158;14.604;2023-04-03T01:28:06;3.47;;;1.88;;
46288;SDS011;63105;46.158;14.604;2023-04-03T01:30:36;3.72;;;1.90;;
46288;SDS011;63105;46.158;14.604;2023-04-03T01:33:03;3.60;;;1.80;;
46288;SDS011;63105;46.158;14.604;2023-04-03T01:35:29;3.75;;;1.90;;
46288;SDS011;63105;46.158;14.604;2023-04-03T01:37:54;3.60;;;1.90;;
46288;SDS011;63105;46.158;14.604;2023-04-03T01:40:19;3.22;;;1.75;;
46288;SDS011;63105;46.158;14.604;2023-04-03T01:42:45;3.80;;;1.90;;
46288;SDS011;63105;46.158;14.604;2023-04-03T01:45:10;3.17;;;1.70;;
46288;SDS011;63105;46.158;14.604;2023-04-03T01:47:35;3.58;;;1.77;;
46288;SDS011;63105;46.158;14.604;2023-04-03T01:50:01;3.33;;;1.80;;
46288;SDS011;63105;46.158;14.604;2023-04-03T01:52:26;3.13;;;1.75;;
46288;SDS011;63105;46.158;14.604;2023-04-03T01:54:51;3.20;;;1.75;;
46288;SDS011;63105;46.158;14.604;2023-04-03T01:57:16;3.35;;;1.92;;
46288;SDS011;63105;46.158;14.604;2023-04-03T01:59:41;3.33;;;1.95;;
46288;SDS011;63105;46.158;14.604;2023-04-03T02:02:07;3.22;;;1.70;;
46288;SDS011;63105;46.158;14.604;2023-04-03T02:04:32;4.07;;;1.95;;
46288;SDS011;63105;46.158;14.604;2023-04-03T02:06:57;3.70;;;1.90;;
46288;SDS011;63105;46.158;14.604;2023-04-03T02:09:23;3.55;;;1.95;;
46288;SDS011;63105;46.158;14.604;2023-04-03T02:11:48;3.53;;;1.90;;
46288;SDS011;63105;46.158;14.604;2023-04-03T02:14:13;3.88;;;1.90;;
46288;SDS011;63105;46.158;14.604;2023-04-03T02:16:38;3.03;;;1.75;;
46288;SDS011;63105;46.158;14.604;2023-04-03T02:19:04;4.03;;;2.00;;
46288;SDS011;63105;46.158;14.604;2023-04-03T02:21:29;4.35;;;2.00;;
46288;SDS011;63105;46.158;14.604;2023-04-03T02:23:55;4.18;;;2.00;;
46288;SDS011;63105;46.158;14.604;2023-04-03T02:26:20;3.33;;;1.73;;
46288;SDS011;63105;46.158;14.604;2023-04-03T02:28:46;4.57;;;2.00;;
46288;SDS011;63105;46.158;14.604;2023-04-03T02:31:11;3.60;;;1.50;;
46288;SDS011;63105;46.158;14.604;2023-04-03T02:33:36;3.17;;;1.70;;
46288;SDS011;63105;46.158;14.604;2023-04-03T02:36:02;3.60;;;1.85;;
46288;SDS011;63105;46.158;14.604;2023-04-03T02:38:28;3.63;;;1.88;;
46288;SDS011;63105;46.158;14.604;2023-04-03T02:40:53;2.88;;;1.65;;
46288;SDS011;63105;46.158;14.604;2023-04-03T02:43:18;3.22;;;1.90;;
46288;SDS011;63105;46.158;14.604;2023-04-03T02:45:43;3.50;;;1.90;;
46288;SDS011;63105;46.158;14.604;2023-04-03T02:48:09;3.10;;;1.70;;
46288;SDS011;63105;46.158;14.604;2023-04-03T02:50:34;3.15;;;1.65;;
46288;SDS011;63105;46.158;14.604;2023-04-03T02:52:59;4.35;;;1.65;;
46288;SDS011;63105;46.158;14.604;2023-04-03T02:55:24;3.42;;;2.03;;
46288;SDS011;63105;46.158;14.604;2023-04-03T02:57:50;3.22;;;1.88;;
46288;SDS011;63105;46.158;14.604;2023-04-03T03:00:15;3.20;;;1.73;;
46288;SDS011;63105;46.158;14.604;2023-04-03T03:02:40;3.65;;;1.85;;
46288;SDS011;63105;46.158;14.604;2023-04-03T03:05:06;3.67;;;1.75;;
46288;SDS011;63105;46.158;14.604;2023-04-03T03:07:32;3.55;;;1.90;;
46288;SDS011;63105;46.158;14.604;2023-04-03T03:09:57;3.15;;;1.77;;
46288;SDS011;63105;46.158;14.604;2023-04-03T03:12:22;4.07;;;2.08;;
46288;SDS011;63105;46.158;14.604;2023-04-03T03:14:49;2.92;;;1.40;;
46288;SDS011;63105;46.158;14.604;2023-04-03T03:17:14;3.08;;;1.70;;
46288;SDS011;63105;46.158;14.604;2023-04-03T03:19:40;3.20;;;1.73;;
46288;SDS011;63105;46.158;14.604;2023-04-03T03:22:05;3.63;;;2.03;;
46288;SDS011;63105;46.158;14.604;2023-04-03T03:24:30;2.85;;;1.65;;
46288;SDS011;63105;46.158;14.604;2023-04-03T03:26:55;3.60;;;1.90;;
46288;SDS011;63105;46.158;14.604;2023-04-03T03:29:21;4.32;;;1.98;;
46288;SDS011;63105;46.158;14.604;2023-04-03T03:31:46;3.33;;;1.95;;
46288;SDS011;63105;46.158;14.604;2023-04-03T03:34:11;3.50;;;1.90;;
46288;SDS011;63105;46.158;14.604;2023-04-03T03:36:36;5.85;;;2.33;;
46288;SDS011;63105;46.158;14.604;2023-04-03T03:39:02;4.47;;;2.08;;
46288;SDS011;63105;46.158;14.604;2023-04-03T03:41:27;3.80;;;2.00;;
46288;SDS011;63105;46.158;14.604;2023-04-03T03:43:52;3.08;;;1.70;;
46288;SDS011;63105;46.158;14.604;2023-04-03T03:46:17;3.53;;;2.00;;
46288;SDS011;63105;46.158;14.604;2023-04-03T03:48:43;4.65;;;2.00;;
46288;SDS011;63105;46.158;14.604;2023-04-03T03:51:08;3.40;;;1.70;;
46288;SDS011;63105;46.158;14.604;2023-04-03T03:53:33;3.22;;;1.67;;
46288;SDS011;63105;46.158;14.604;2023-04-03T03:55:58;3.88;;;2.10;;
46288;SDS011;63105;46.158;14.604;2023-04-03T03:58:24;4.07;;;2.15;;
46288;SDS011;63105;46.158;14.604;2023-04-03T04:00:49;3.80;;;1.95;;
46288;SDS011;63105;46.158;14.604;2023-04-03T04:03:15;3.58;;;1.90;;
46288;SDS011;63105;46.158;14.604;2023-04-03T04:05:40;3.88;;;2.15;;
46288;SDS011;63105;46.158;14.604;2023-04-03T04:08:05;3.97;;;2.03;;
46288;SDS011;63105;46.158;14.604;2023-04-03T04:10:31;4.07;;;2.15;;
46288;SDS011;63105;46.158;14.604;2023-04-03T04:12:56;3.72;;;1.88;;
46288;SDS011;63105;46.158;14.604;2023-04-03T04:15:21;4.22;;;2.10;;
46288;SDS011;63105;46.158;14.604;2023-04-03T04:17:47;3.90;;;2.08;;
46288;SDS011;63105;46.158;14.604;2023-04-03T04:20:13;4.60;;;1.95;;
46288;SDS011;63105;46.158;14.604;2023-04-03T04:22:38;3.35;;;1.70;;
46288;SDS011;63105;46.158;14.604;2023-04-03T04:25:04;4.00;;;2.00;;
46288;SDS011;63105;46.158;14.604;2023-04-03T04:27:29;3.75;;;1.90;;
46288;SDS011;63105;46.158;14.604;2023-04-03T04:29:54;3.85;;;2.00;;
46288;SDS011;63105;46.158;14.604;2023-04-03T04:32:20;3.00;;;1.70;;
46288;SDS011;63105;46.158;14.604;2023-04-03T04:34:45;3.58;;;1.90;;
46288;SDS011;63105;46.158;14.604;2023-04-03T04:37:10;3.67;;;1.90;;
46288;SDS011;63105;46.158;14.604;2023-04-03T04:39:35;3.50;;;1.92;;
46288;SDS011;63105;46.158;14.604;2023-04-03T04:42:00;3.35;;;1.80;;
46288;SDS011;63105;46.158;14.604;2023-04-03T04:44:26;3.40;;;1.88;;
46288;SDS011;63105;46.158;14.604;2023-04-03T04:46:51;4.78;;;2.00;;
46288;SDS011;63105;46.158;14.604;2023-04-03T04:49:16;3.45;;;1.85;;
46288;SDS011;63105;46.158;14.604;2023-04-03T04:51:42;3.20;;;1.80;;
46288;SDS011;63105;46.158;14.604;2023-04-03T04:54:07;2.92;;;1.48;;
46288;SDS011;63105;46.158;14.604;2023-04-03T04:56:32;3.58;;;2.00;;
46288;SDS011;63105;46.158;14.604;2023-04-03T04:58:57;3.80;;;1.73;;
46288;SDS011;63105;46.158;14.604;2023-04-03T05:01:22;2.92;;;1.65;;
46288;SDS011;63105;46.158;14.604;2023-04-03T05:03:48;3.25;;;1.70;;
46288;SDS011;63105;46.158;14.604;2023-04-03T05:06:13;3.60;;;1.83;;
46288;SDS011;63105;46.158;14.604;2023-04-03T05:08:38;3.25;;;1.70;;
46288;SDS011;63105;46.158;14.604;2023-04-03T05:11:03;3.17;;;1.73;;
46288;SDS011;63105;46.158;14.604;2023-04-03T05:13:29;3.63;;;1.55;;
46288;SDS011;63105;46.158;14.604;2023-04-03T05:15:54;3.55;;;1.83;;
46288;SDS011;63105;46.158;14.604;2023-04-03T05:18:20;4.05;;;2.40;;
46288;SDS011;63105;46.158;14.604;2023-04-03T05:20:47;4.47;;;2.90;;
46288;SDS011;63105;46.158;14.604;2023-04-03T05:23:13;5.18;;;3.35;;
46288;SDS011;63105;46.158;14.604;2023-04-03T05:25:38;4.95;;;3.47;;
46288;SDS011;63105;46.158;14.604;2023-04-03T05:28:03;5.53;;;3.72;;
46288;SDS011;63105;46.158;14.604;2023-04-03T05:30:29;5.78;;;3.72;;
46288;SDS011;63105;46.158;14.604;2023-04-03T05:32:54;5.28;;;3.30;;
46288;SDS011;63105;46.158;14.604;2023-04-03T05:35:19;5.25;;;3.45;;
46288;SDS011;63105;46.158;14.604;2023-04-03T05:37:45;5.57;;;3.22;;
46288;SDS011;63105;46.158;14.604;2023-04-03T05:40:10;6.20;;;3.45;;
46288;SDS011;63105;46.158;14.604;2023-04-03T05:42:35;5.05;;;3.30;;
46288;SDS011;63105;46.158;14.604;2023-04-03T05:45:00;4.85;;;2.72;;
46288;SDS011;63105;46.158;14.604;2023-04-03T05:47:26;3.95;;;2.60;;
46288;SDS011;63105;46.158;14.604;2023-04-03T05:49:51;4.65;;;2.67;;
46288;SDS011;63105;46.158;14.604;2023-04-03T05:52:21;5.18;;;2.60;;
46288;SDS011;63105;46.158;14.604;2023-04-03T05:54:46;3.95;;;2.50;;
46288;SDS011;63105;46.158;14.604;2023-04-03T05:57:13;3.95;;;2.33;;
46288;SDS011;63105;46.158;14.604;2023-04-03T05:59:38;3.95;;;2.28;;
46288;SDS011;63105;46.158;14.604;2023-04-03T06:02:03;4.85;;;2.30;;
46288;SDS011;63105;46.158;14.604;2023-04-03T06:04:29;3.78;;;1.85;;
46288;SDS011;63105;46.158;14.604;2023-04-03T06:06:56;3.83;;;2.15;;
46288;SDS011;63105;46.158;14.604;2023-04-03T06:09:23;3.58;;;1.90;;
46288;SDS011;63105;46.158;14.604;2023-04-03T06:11:48;3.75;;;1.80;;
46288;SDS011;63105;46.158;14.604;2023-04-03T06:14:13;4.30;;;1.90;;
46288;SDS011;63105;46.158;14.604;2023-04-03T06:16:39;3.25;;;1.67;;
46288;SDS011;63105;46.158;14.604;2023-04-03T06:19:04;3.38;;;1.50;;
46288;SDS011;63105;46.158;14.604;2023-04-03T06:21:30;2.88;;;1.48;;
46288;SDS011;63105;46.158;14.604;2023-04-03T06:23:56;3.58;;;1.70;;
46288;SDS011;63105;46.158;14.604;2023-04-03T06:26:21;3.42;;;1.67;;
46288;SDS011;63105;46.158;14.604;2023-04-03T06:28:47;2.97;;;1.50;;
46288;SDS011;63105;46.158;14.604;2023-04-03T06:31:12;3.08;;;1.40;;
46288;SDS011;63105;46.158;14.604;2023-04-03T06:33:38;2.72;;;1.40;;
46288;SDS011;63105;46.158;14.604;2023-04-03T06:36:03;3.17;;;1.45;;
46288;SDS011;63105;46.158;14.604;2023-04-03T06:38:29;3.08;;;1.40;;
46288;SDS011;63105;46.158;14.604;2023-04-03T06:40:54;2.80;;;1.20;;
46288;SDS011;63105;46.158;14.604;2023-04-03T06:43:20;3.40;;;1.80;;
46288;SDS011;63105;46.158;14.604;2023-04-03T06:45:46;4.72;;;1.50;;
46288;SDS011;63105;46.158;14.604;2023-04-03T06:48:12;2.63;;;1.40;;
46288;SDS011;63105;46.158;14.604;2023-04-03T06:50:37;2.95;;;1.35;;
46288;SDS011;63105;46.158;14.604;2023-04-03T06:53:02;2.95;;;1.30;;
46288;SDS011;63105;46.158;14.604;2023-04-03T06:55:28;2.55;;;1.30;;
46288;SDS011;63105;46.158;14.604;2023-04-03T06:57:53;3.70;;;1.60;;
46288;SDS011;63105;46.158;14.604;2023-04-03T07:00:19;3.65;;;1.42;;
46288;SDS011;63105;46.158;14.604;2023-04-03T07:02:44;2.72;;;1.30;;
46288;SDS011;63105;46.158;14.604;2023-04-03T07:05:10;3.53;;;1.38;;
46288;SDS011;63105;46.158;14.604;2023-04-03T07:07:36;2.53;;;1.13;;
46288;SDS011;63105;46.158;14.604;2023-04-03T07:10:02;3.60;;;1.77;;
46288;SDS011;63105;46.158;14.604;2023-04-03T07:12:28;2.85;;;1.30;;
46288;SDS011;63105;46.158;14.604;2023-04-03T07:14:53;3.47;;;1.63;;
46288;SDS011;63105;46.158;14.604;2023-04-03T07:17:18;6.10;;;1.40;;
46288;SDS011;63105;46.158;14.604;2023-04-03T07:19:43;4.32;;;1.35;;
46288;SDS011;63105;46.158;14.604;2023-04-03T07:22:09;2.55;;;1.20;;
46288;SDS011;63105;46.158;14.604;2023-04-03T07:24:36;2.35;;;1.15;;
46288;SDS011;63105;46.158;14.604;2023-04-03T07:27:01;3.15;;;1.30;;
46288;SDS011;63105;46.158;14.604;2023-04-03T07:29:27;3.20;;;1.58;;
46288;SDS011;63105;46.158;14.604;2023-04-03T07:31:52;2.67;;;1.20;;
46288;SDS011;63105;46.158;14.604;2023-04-03T07:34:18;2.85;;;1.30;;
46288;SDS011;63105;46.158;14.604;2023-04-03T07:36:43;3.45;;;1.30;;
46288;SDS011;63105;46.158;14.604;2023-04-03T07:39:08;4.88;;;1.23;;
46288;SDS011;63105;46.158;14.604;2023-04-03T07:41:33;3.00;;;1.20;;
46288;SDS011;63105;46.158;14.604;2023-04-03T07:43:59;3.30;;;1.40;;
46288;SDS011;63105;46.158;14.604;2023-04-03T07:46:24;3.63;;;1.30;;
46288;SDS011;63105;46.158;14.604;2023-04-03T07:48:49;3.55;;;1.15;;
46288;SDS011;63105;46.158;14.604;2023-04-03T07:51:15;3.38;;;1.20;;
46288;SDS011;63105;46.158;14.604;2023-04-03T07:53:41;3.10;;;1.27;;
46288;SDS011;63105;46.158;14.604;2023-04-03T07:56:06;3.28;;;1.13;;
46288;SDS011;63105;46.158;14.604;2023-04-03T07:58:32;2.40;;;1.08;;
46288;SDS011;63105;46.158;14.604;2023-04-03T08:00:57;3.45;;;1.30;;
46288;SDS011;63105;46.158;14.604;2023-04-03T08:03:23;2.50;;;1.30;;
46288;SDS011;63105;46.158;14.604;2023-04-03T08:05:48;3.70;;;1.17;;
46288;SDS011;63105;46.158;14.604;2023-04-03T08:08:17;4.25;;;1.20;;
46288;SDS011;63105;46.158;14.604;2023-04-03T08:10:43;3.22;;;1.30;;
46288;SDS011;63105;46.158;14.604;2023-04-03T08:13:09;3.47;;;1.33;;
46288;SDS011;63105;46.158;14.604;2023-04-03T08:15:35;3.22;;;1.10;;
46288;SDS011;63105;46.158;14.604;2023-04-03T08:18:00;1.90;;;1.00;;
46288;SDS011;63105;46.158;14.604;2023-04-03T08:20:26;2.10;;;1.00;;
46288;SDS011;63105;46.158;14.604;2023-04-03T08:22:52;2.30;;;1.10;;
46288;SDS011;63105;46.158;14.604;2023-04-03T08:25:17;2.58;;;1.13;;
46288;SDS011;63105;46.158;14.604;2023-04-03T08:27:43;2.78;;;1.15;;
46288;SDS011;63105;46.158;14.604;2023-04-03T08:30:08;3.05;;;1.08;;
46288;SDS011;63105;46.158;14.604;2023-04-03T08:32:34;2.10;;;0.90;;
46288;SDS011;63105;46.158;14.604;2023-04-03T08:35:00;3.80;;;1.10;;
46288;SDS011;63105;46.158;14.604;2023-04-03T08:37:25;3.58;;;1.00;;
46288;SDS011;63105;46.158;14.604;2023-04-03T08:39:51;2.17;;;1.00;;
46288;SDS011;63105;46.158;14.604;2023-04-03T08:42:31;3.42;;;1.17;;
46288;SDS011;63105;46.158;14.604;2023-04-03T08:45:16;2.08;;;1.00;;
46288;SDS011;63105;46.158;14.604;2023-04-03T08:48:03;3.20;;;1.10;;
46288;SDS011;63105;46.158;14.604;2023-04-03T08:50:43;2.42;;;1.10;;
46288;SDS011;63105;46.158;14.604;2023-04-03T08:53:15;3.13;;;1.10;;
46288;SDS011;63105;46.158;14.604;2023-04-03T08:55:48;2.63;;;0.80;;
46288;SDS011;63105;46.158;14.604;2023-04-03T09:00:50;2.20;;;0.90;;
46288;SDS011;63105;46.158;14.604;2023-04-03T09:03:17;3.08;;;1.30;;
46288;SDS011;63105;46.158;14.604;2023-04-03T09:10:45;2.38;;;1.13;;
46288;SDS011;63105;46.158;14.604;2023-04-03T09:15:36;6.35;;;3.78;;
46288;SDS011;63105;46.158;14.604;2023-04-03T09:20:41;2.72;;;1.02;;
46288;SDS011;63105;46.158;14.604;2023-04-03T09:25:40;3.80;;;0.98;;
46288;SDS011;63105;46.158;14.604;2023-04-03T09:28:06;3.45;;;1.30;;
46288;SDS011;63105;46.158;14.604;2023-04-03T09:30:35;2.35;;;1.00;;
46288;SDS011;63105;46.158;14.604;2023-04-03T09:33:00;2.05;;;0.95;;
46288;SDS011;63105;46.158;14.604;2023-04-03T09:35:27;2.40;;;1.10;;
46288;SDS011;63105;46.158;14.604;2023-04-03T09:37:54;1.48;;;0.77;;
46288;SDS011;63105;46.158;14.604;2023-04-03T09:40:28;1.65;;;0.60;;
46288;SDS011;63105;46.158;14.604;2023-04-03T09:42:57;2.97;;;1.10;;
46288;SDS011;63105;46.158;14.604;2023-04-03T09:45:33;2.85;;;0.90;;
46288;SDS011;63105;46.158;14.604;2023-04-03T09:51:00;2.70;;;1.00;;
46288;SDS011;63105;46.158;14.604;2023-04-03T09:53:37;2.08;;;1.10;;
46288;SDS011;63105;46.158;14.604;2023-04-03T09:56:04;2.00;;;0.90;;
46288;SDS011;63105;46.158;14.604;2023-04-03T09:58:37;4.05;;;1.10;;
46288;SDS011;63105;46.158;14.604;2023-04-03T10:01:04;2.97;;;1.30;;
46288;SDS011;63105;46.158;14.604;2023-04-03T10:03:33;3.03;;;1.10;;
46288;SDS011;63105;46.158;14.604;2023-04-03T10:06:00;2.33;;;0.90;;
46288;SDS011;63105;46.158;14.604;2023-04-03T10:08:32;2.00;;;0.70;;
46288;SDS011;63105;46.158;14.604;2023-04-03T10:11:11;2.63;;;0.70;;
46288;SDS011;63105;46.158;14.604;2023-04-03T10:13:49;1.92;;;0.80;;
46288;SDS011;63105;46.158;14.604;2023-04-03T10:16:15;2.33;;;0.88;;
46288;SDS011;63105;46.158;14.604;2023-04-03T10:26:49;2.00;;;0.80;;
46288;SDS011;63105;46.158;14.604;2023-04-03T10:29:20;2.13;;;0.90;;
46288;SDS011;63105;46.158;14.604;2023-04-03T10:32:03;2.13;;;0.80;;
46288;SDS011;63105;46.158;14.604;2023-04-03T10:34:39;2.30;;;1.00;;
46288;SDS011;63105;46.158;14.604;2023-04-03T10:37:20;2.47;;;1.00;;
46288;SDS011;63105;46.158;14.604;2023-04-03T10:45:06;1.75;;;0.70;;
46288;SDS011;63105;46.158;14.604;2023-04-03T10:50:42;4.45;;;2.25;;
46288;SDS011;63105;46.158;14.604;2023-04-03T10:53:19;2.20;;;0.90;;
46288;SDS011;63105;46.158;14.604;2023-04-03T10:58:19;1.88;;;1.00;;
46288;SDS011;63105;46.158;14.604;2023-04-03T11:00:46;1.70;;;0.80;;
46288;SDS011;63105;46.158;14.604;2023-04-03T11:03:15;1.98;;;0.85;;
46288;SDS011;63105;46.158;14.604;2023-04-03T11:05:44;3.08;;;1.35;;
46288;SDS011;63105;46.158;14.604;2023-04-03T11:10:42;1.75;;;0.70;;
46288;SDS011;63105;46.158;14.604;2023-04-03T11:15:44;1.38;;;0.70;;
46288;SDS011;63105;46.158;14.604;2023-04-03T11:18:17;1.25;;;0.65;;
46288;SDS011;63105;46.158;14.604;2023-04-03T11:20:53;1.25;;;0.63;;
46288;SDS011;63105;46.158;14.604;2023-04-03T11:23:25;1.70;;;0.70;;
46288;SDS011;63105;46.158;14.604;2023-04-03T11:25:52;1.35;;;0.63;;
46288;SDS011;63105;46.158;14.604;2023-04-03T11:28:18;2.20;;;0.85;;
46288;SDS011;63105;46.158;14.604;2023-04-03T11:30:49;2.00;;;0.90;;
46288;SDS011;63105;46.158;14.604;2023-04-03T11:33:23;2.50;;;0.80;;
46288;SDS011;63105;46.158;14.604;2023-04-03T11:35:54;2.15;;;0.75;;
46288;SDS011;63105;46.158;14.604;2023-04-03T11:38:25;1.88;;;0.75;;
46288;SDS011;63105;46.158;14.604;2023-04-03T11:40:52;2.00;;;0.77;;
46288;SDS011;63105;46.158;14.604;2023-04-03T11:43:28;2.22;;;0.95;;
46288;SDS011;63105;46.158;14.604;2023-04-03T11:45:56;1.77;;;0.80;;
46288;SDS011;63105;46.158;14.604;2023-04-03T11:50:52;2.53;;;0.98;;
46288;SDS011;63105;46.158;14.604;2023-04-03T11:53:39;1.58;;;0.73;;
46288;SDS011;63105;46.158;14.604;2023-04-03T11:58:43;3.90;;;1.10;;
46288;SDS011;63105;46.158;14.604;2023-04-03T12:02:13;1.45;;;0.73;;
46288;SDS011;63105;46.158;14.604;2023-04-03T12:04:25;1.40;;;0.55;;
46288;SDS011;63105;46.158;14.604;2023-04-03T12:07:11;2.38;;;0.70;;
46288;SDS011;63105;46.158;14.604;2023-04-03T12:12:32;1.80;;;0.82;;
46288;SDS011;63105;46.158;14.604;2023-04-03T12:14:55;3.00;;;1.15;;
46288;SDS011;63105;46.158;14.604;2023-04-03T12:17:25;1.75;;;0.90;;
46288;SDS011;63105;46.158;14.604;2023-04-03T12:19:51;4.78;;;1.75;;
46288;SDS011;63105;46.158;14.604;2023-04-03T12:22:17;2.85;;;0.98;;
46288;SDS011;63105;46.158;14.604;2023-04-03T12:24:46;3.13;;;0.80;;
46288;SDS011;63105;46.158;14.604;2023-04-03T12:29:52;4.32;;;1.30;;
46288;SDS011;63105;46.158;14.604;2023-04-03T12:45:37;2.40;;;0.90;;
46288;SDS011;63105;46.158;14.604;2023-04-03T12:48:08;3.30;;;0.90;;
46288;SDS011;63105;46.158;14.604;2023-04-03T12:50:37;2.10;;;0.80;;
46288;SDS011;63105;46.158;14.604;2023-04-03T12:55:31;4.20;;;1.08;;
46288;SDS011;63105;46.158;14.604;2023-04-03T12:57:56;2.33;;;1.10;;
46288;SDS011;63105;46.158;14.604;2023-04-03T13:02:53;1.95;;;0.80;;
46288;SDS011;63105;46.158;14.604;2023-04-03T13:05:18;1.50;;;0.70;;
46288;SDS011;63105;46.158;14.604;2023-04-03T13:07:44;2.72;;;0.80;;
46288;SDS011;63105;46.158;14.604;2023-04-03T13:10:14;1.92;;;0.70;;
46288;SDS011;63105;46.158;14.604;2023-04-03T13:15:14;1.63;;;0.80;;
46288;SDS011;63105;46.158;14.604;2023-04-03T13:17:41;2.30;;;0.90;;
46288;SDS011;63105;46.158;14.604;2023-04-03T13:20:14;1.50;;;0.70;;
46288;SDS011;63105;46.158;14.604;2023-04-03T13:22:43;2.90;;;0.90;;
46288;SDS011;63105;46.158;14.604;2023-04-03T13:25:12;2.53;;;1.00;;
46288;SDS011;63105;46.158;14.604;2023-04-03T13:27:38;2.33;;;0.90;;
46288;SDS011;63105;46.158;14.604;2023-04-03T13:30:17;3.42;;;1.17;;
46288;SDS011;63105;46.158;14.604;2023-04-03T13:32:43;2.85;;;0.82;;
46288;SDS011;63105;46.158;14.604;2023-04-03T13:37:56;2.63;;;1.10;;
46288;SDS011;63105;46.158;14.604;2023-04-03T13:40:21;3.30;;;1.42;;
46288;SDS011;63105;46.158;14.604;2023-04-03T13:42:57;2.30;;;1.10;;
46288;SDS011;63105;46.158;14.604;2023-04-03T13:45:24;2.58;;;1.10;;
46288;SDS011;63105;46.158;14.604;2023-04-03T13:47:52;2.63;;;1.05;;
46288;SDS011;63105;46.158;14.604;2023-04-03T13:50:19;4.32;;;1.30;;
46288;SDS011;63105;46.158;14.604;2023-04-03T13:52:55;2.63;;;1.10;;
46288;SDS011;63105;46.158;14.604;2023-04-03T13:55:29;3.50;;;1.70;;
46288;SDS011;63105;46.158;14.604;2023-04-03T13:58:00;3.13;;;1.00;;
46288;SDS011;63105;46.158;14.604;2023-04-03T14:03:03;2.25;;;0.82;;
46288;SDS011;63105;46.158;14.604;2023-04-03T14:05:36;2.35;;;0.80;;
46288;SDS011;63105;46.158;14.604;2023-04-03T14:08:01;1.80;;;0.73;;
46288;SDS011;63105;46.158;14.604;2023-04-03T14:10:27;3.05;;;0.90;;
46288;SDS011;63105;46.158;14.604;2023-04-03T14:12:52;1.98;;;0.80;;
46288;SDS011;63105;46.158;14.604;2023-04-03T14:15:24;4.15;;;0.95;;
46288;SDS011;63105;46.158;14.604;2023-04-03T14:17:51;2.22;;;0.80;;
46288;SDS011;63105;46.158;14.604;2023-04-03T14:20:18;2.80;;;0.90;;
46288;SDS011;63105;46.158;14.604;2023-04-03T14:22:43;2.28;;;1.05;;
46288;SDS011;63105;46.158;14.604;2023-04-03T14:25:09;1.63;;;0.80;;
46288;SDS011;63105;46.158;14.604;2023-04-03T14:27:36;1.70;;;0.70;;
46288;SDS011;63105;46.158;14.604;2023-04-03T14:30:03;2.47;;;0.93;;
46288;SDS011;63105;46.158;14.604;2023-04-03T14:32:29;4.40;;;1.60;;
46288;SDS011;63105;46.158;14.604;2023-04-03T14:34:55;2.42;;;0.98;;
46288;SDS011;63105;46.158;14.604;2023-04-03T14:37:23;2.33;;;0.90;;
46288;SDS011;63105;46.158;14.604;2023-04-03T14:39:49;2.42;;;1.00;;
46288;SDS011;63105;46.158;14.604;2023-04-03T14:42:19;2.00;;;0.70;;
46288;SDS011;63105;46.158;14.604;2023-04-03T14:44:45;2.88;;;1.20;;
46288;SDS011;63105;46.158;14.604;2023-04-03T14:47:14;2.33;;;1.17;;
46288;SDS011;63105;46.158;14.604;2023-04-03T14:49:41;1.92;;;0.80;;
46288;SDS011;63105;46.158;14.604;2023-04-03T14:52:09;2.40;;;0.90;;
46288;SDS011;63105;46.158;14.604;2023-04-03T14:54:40;2.90;;;1.20;;
46288;SDS011;63105;46.158;14.604;2023-04-03T14:57:08;2.53;;;1.10;;
46288;SDS011;63105;46.158;14.604;2023-04-03T14:59:34;3.00;;;1.40;;
46288;SDS011;63105;46.158;14.604;2023-04-03T15:01:59;2.38;;;1.20;;
46288;SDS011;63105;46.158;14.604;2023-04-03T15:04:24;3.15;;;1.60;;
46288;SDS011;63105;46.158;14.604;2023-04-03T15:06:50;4.10;;;1.63;;
46288;SDS011;63105;46.158;14.604;2023-04-03T15:09:26;3.83;;;1.85;;
46288;SDS011;63105;46.158;14.604;2023-04-03T15:11:53;3.63;;;1.55;;
46288;SDS011;63105;46.158;14.604;2023-04-03T15:14:18;4.22;;;1.73;;
46288;SDS011;63105;46.158;14.604;2023-04-03T15:16:44;5.20;;;1.70;;
46288;SDS011;63105;46.158;14.604;2023-04-03T15:19:10;4.15;;;1.45;;
46288;SDS011;63105;46.158;14.604;2023-04-03T15:21:35;2.78;;;1.17;;
46288;SDS011;63105;46.158;14.604;2023-04-03T15:24:01;2.55;;;1.10;;
46288;SDS011;63105;46.158;14.604;2023-04-03T15:26:26;4.15;;;0.93;;
46288;SDS011;63105;46.158;14.604;2023-04-03T15:28:51;2.55;;;1.10;;
46288;SDS011;63105;46.158;14.604;2023-04-03T15:31:16;4.70;;;1.27;;
46288;SDS011;63105;46.158;14.604;2023-04-03T15:33:41;2.78;;;1.10;;
46288;SDS011;63105;46.158;14.604;2023-04-03T15:36:07;2.58;;;1.10;;
46288;SDS011;63105;46.158;14.604;2023-04-03T15:38:32;2.65;;;1.10;;
46288;SDS011;63105;46.158;14.604;2023-04-03T15:40:57;2.17;;;0.98;;
46288;SDS011;63105;46.158;14.604;2023-04-03T15:43:26;2.75;;;1.15;;
46288;SDS011;63105;46.158;14.604;2023-04-03T15:45:58;4.10;;;1.33;;
46288;SDS011;63105;46.158;14.604;2023-04-03T15:48:24;2.25;;;1.00;;
46288;SDS011;63105;46.158;14.604;2023-04-03T15:50:49;4.20;;;1.13;;
46288;SDS011;63105;46.158;14.604;2023-04-03T15:53:15;2.78;;;1.48;;
46288;SDS011;63105;46.158;14.604;2023-04-03T15:55:40;3.13;;;1.50;;
46288;SDS011;63105;46.158;14.604;2023-04-03T15:58:06;2.35;;;1.00;;